Time;durP1;ratioP1;P1;durP2;ratioP2;P2;SDS_P1;SDS_P2;PMS_P1;PMS_P2;Temp;Humidity;BMP_temperature;BMP_pressure;BME280_temperature;BME280_humidity;BME280_pressure;Samples;Min_cycle;Max_cycle;Signal;HPM_P1;HPM_P2
2022/07/29 00:00:01;;;;;;;5.50;2.03;;;18.60;99.90;;;;;;6277182;22;20390;-89
2022/07/29 00:02:28;;;;;;;6.38;2.30;;;18.60;99.90;;;;;;6277240;22;20003;-91
2022/07/29 00:04:54;;;;;;;6.90;2.03;;;18.60;99.90;;;;;;6304158;22;19995;-92
2022/07/29 00:07:20;;;;;;;7.68;1.95;;;18.50;99.90;;;;;;6277820;22;20014;-86
2022/07/29 00:09:46;;;;;;;5.38;2.05;;;18.60;99.90;;;;;;6305196;22;20011;-90
2022/07/29 00:12:11;;;;;;;8.68;2.17;;;18.60;99.90;;;;;;6305071;22;19996;-87
2022/07/29 00:14:37;;;;;;;4.22;2.00;;;18.60;99.90;;;;;;6277027;22;20445;-92
2022/07/29 00:17:03;;;;;;;5.53;2.00;;;18.70;99.90;;;;;;6304342;22;20003;-91
2022/07/29 00:19:28;;;;;;;3.70;1.92;;;19.00;99.90;;;;;;6304750;22;20003;-89
2022/07/29 00:21:54;;;;;;;6.28;1.80;;;18.80;99.90;;;;;;6304711;22;20062;-89
2022/07/29 00:24:20;;;;;;;8.65;2.45;;;18.90;99.90;;;;;;6305732;22;20010;-88
2022/07/29 00:26:45;;;;;;;9.43;2.03;;;18.70;99.90;;;;;;6304366;22;20061;-91
2022/07/29 00:29:11;;;;;;;6.75;1.80;;;18.70;99.90;;;;;;6304470;22;20340;-88
2022/07/29 00:31:36;;;;;;;7.55;1.90;;;18.70;99.90;;;;;;6304453;22;20003;-91
2022/07/29 00:34:02;;;;;;;6.03;1.92;;;18.70;99.90;;;;;;6303215;22;19999;-92
2022/07/29 00:36:28;;;;;;;7.72;2.10;;;18.70;99.90;;;;;;6304227;22;20073;-91
2022/07/29 00:38:54;;;;;;;5.18;2.08;;;18.80;99.90;;;;;;6304848;22;20011;-89
2022/07/29 00:41:20;;;;;;;8.18;2.28;;;18.80;99.90;;;;;;6307212;22;20007;-93
2022/07/29 00:43:45;;;;;;;3.80;1.98;;;18.80;99.90;;;;;;6306787;22;19999;-92
2022/07/29 00:46:12;;;;;;;5.53;1.80;;;18.90;99.90;;;;;;6304837;22;20011;-91
2022/07/29 00:48:38;;;;;;;4.82;2.00;;;18.90;99.90;;;;;;6303521;22;20014;-93
2022/07/29 00:51:05;;;;;;;3.92;1.92;;;18.90;99.90;;;;;;6252667;22;20007;-90
2022/07/29 00:53:32;;;;;;;3.17;1.70;;;19.00;99.90;;;;;;6304557;22;20481;-89
2022/07/29 00:55:58;;;;;;;7.32;2.00;;;19.10;99.90;;;;;;6304259;22;20003;-90
2022/07/29 00:58:26;;;;;;;8.75;2.10;;;18.90;99.90;;;;;;6304462;22;20003;-87
2022/07/29 01:00:52;;;;;;;6.72;1.85;;;19.00;99.90;;;;;;6305380;22;19999;-93
2022/07/29 01:03:18;;;;;;;5.25;1.95;;;18.90;99.90;;;;;;6304106;22;20530;-88
2022/07/29 01:05:45;;;;;;;6.32;2.20;;;18.60;99.90;;;;;;6304299;22;19999;-91
2022/07/29 01:08:13;;;;;;;3.70;1.70;;;18.50;99.90;;;;;;6304090;22;20499;-86
2022/07/29 01:10:40;;;;;;;5.18;1.90;;;18.50;99.90;;;;;;6303700;22;20007;-92
2022/07/29 01:13:07;;;;;;;3.57;1.57;;;18.60;99.90;;;;;;6276922;22;20010;-92
2022/07/29 01:15:39;;;;;;;10.02;2.17;;;18.50;99.90;;;;;;6275931;22;20030;-92
2022/07/29 01:18:15;;;;;;;3.95;1.80;;;18.60;99.90;;;;;;6277119;22;20003;-92
2022/07/29 01:20:55;;;;;;;5.72;1.80;;;18.70;99.90;;;;;;6303923;22;20027;-92
2022/07/29 01:23:27;;;;;;;6.57;2.13;;;18.70;99.90;;;;;;6304667;22;20072;-86
2022/07/29 01:26:09;;;;;;;6.20;2.00;;;18.70;99.90;;;;;;6304975;22;20074;-89
2022/07/29 01:28:59;;;;;;;10.00;1.98;;;18.70;99.90;;;;;;6304221;22;20007;-92
2022/07/29 01:31:50;;;;;;;3.75;2.15;;;18.80;99.90;;;;;;6305206;22;19999;-85
2022/07/29 01:34:22;;;;;;;11.70;2.67;;;18.60;99.90;;;;;;6303265;22;20052;-88
2022/07/29 01:36:56;;;;;;;3.38;1.58;;;18.70;99.90;;;;;;6305252;22;20019;-89
2022/07/29 01:39:34;;;;;;;2.70;1.80;;;18.70;99.90;;;;;;6279496;22;20008;-85
2022/07/29 01:42:06;;;;;;;;;;;18.70;99.90;;;;;;6306415;22;20003;-89
2022/07/29 01:44:37;;;;;;;4.65;2.00;;;18.70;99.90;;;;;;6279142;22;19970;-91
2022/07/29 01:47:12;;;;;;;6.00;1.80;;;18.70;99.90;;;;;;6306302;22;20000;-91
2022/07/29 01:49:45;;;;;;;4.05;1.90;;;18.60;99.90;;;;;;6278780;22;20014;-93
2022/07/29 01:52:19;;;;;;;3.55;1.73;;;18.70;99.90;;;;;;6278766;22;20026;-91
2022/07/29 01:54:53;;;;;;;4.13;1.80;;;18.70;99.90;;;;;;6305102;22;20006;-91
2022/07/29 01:57:24;;;;;;;6.05;1.92;;;18.70;99.90;;;;;;6305415;22;20343;-92
2022/07/29 01:59:52;;;;;;;6.50;2.30;;;18.70;99.90;;;;;;6279026;22;20003;-86
2022/07/29 02:02:18;;;;;;;4.53;1.95;;;18.70;99.90;;;;;;6278658;22;20014;-91
2022/07/29 02:04:48;;;;;;;5.85;1.85;;;18.70;99.90;;;;;;6305123;22;20006;-91
2022/07/29 02:07:17;;;;;;;7.60;1.88;;;18.70;99.90;;;;;;6277740;22;20007;-89
2022/07/29 02:09:45;;;;;;;8.65;2.00;;;18.80;99.90;;;;;;6305794;22;20007;-92
2022/07/29 02:12:13;;;;;;;3.80;2.10;;;18.80;99.90;;;;;;6304684;22;20008;-90
2022/07/29 02:14:44;;;;;;;3.20;1.80;;;18.70;99.90;;;;;;6278363;22;20007;-92
2022/07/29 02:17:12;;;;;;;7.07;1.80;;;18.60;99.90;;;;;;6278843;22;20399;-92
2022/07/29 02:19:39;;;;;;;8.82;2.13;;;18.70;99.90;;;;;;6307562;22;20003;-89
2022/07/29 02:22:06;;;;;;;6.53;1.90;;;18.70;99.90;;;;;;6281136;22;20000;-92
2022/07/29 02:24:35;;;;;;;6.18;1.92;;;18.70;99.90;;;;;;6309700;22;20003;-93
2022/07/29 02:27:02;;;;;;;3.75;1.80;;;18.80;99.90;;;;;;6307800;22;20010;-91
2022/07/29 02:29:29;;;;;;;5.00;2.10;;;18.90;99.90;;;;;;6305759;22;20011;-86
2022/07/29 02:31:58;;;;;;;3.00;1.90;;;18.90;99.90;;;;;;6306147;22;20010;-89
2022/07/29 02:34:24;;;;;;;;;;;18.90;99.90;;;;;;6280498;22;20014;-89
2022/07/29 02:36:51;;;;;;;4.82;2.08;;;18.90;99.90;;;;;;6305677;22;19910;-90
2022/07/29 02:39:18;;;;;;;6.93;2.10;;;19.20;99.90;;;;;;6305156;22;20011;-90
2022/07/29 02:41:51;;;;;;;5.47;1.75;;;18.70;99.90;;;;;;6306406;22;20068;-88
2022/07/29 02:44:23;;;;;;;5.95;1.92;;;18.60;99.90;;;;;;6305204;22;20025;-93
2022/07/29 02:47:03;;;;;;;3.38;2.00;;;18.70;99.90;;;;;;6305256;22;20078;-92
2022/07/29 02:49:52;;;;;;;7.03;2.13;;;18.70;99.90;;;;;;6305454;22;20013;-89
2022/07/29 02:52:31;;;;;;;6.68;2.03;;;18.70;99.90;;;;;;6278280;22;20778;-89
2022/07/29 02:55:02;;;;;;;4.70;1.80;;;18.60;99.90;;;;;;6306057;22;20003;-90
2022/07/29 02:57:43;;;;;;;4.88;1.80;;;18.60;99.90;;;;;;6306910;22;19995;-88
2022/07/29 03:00:10;;;;;;;4.70;1.80;;;18.60;99.90;;;;;;6306947;22;20070;-94
2022/07/29 03:02:38;;;;;;;3.20;1.73;;;18.60;99.90;;;;;;6305800;22;19999;-95
2022/07/29 03:05:07;;;;;;;4.47;1.98;;;18.50;99.90;;;;;;6305696;22;20002;-92
2022/07/29 03:07:35;;;;;;;5.18;2.00;;;18.40;99.90;;;;;;6278283;22;20003;-89
2022/07/29 03:10:02;;;;;;;3.17;1.80;;;18.60;99.90;;;;;;6304068;22;20022;-88
2022/07/29 03:12:30;;;;;;;4.80;2.00;;;18.50;99.90;;;;;;6306362;22;19999;-89
2022/07/29 03:14:56;;;;;;;5.13;1.92;;;18.50;99.90;;;;;;6307083;22;20011;-90
2022/07/29 03:17:22;;;;;;;6.25;1.90;;;18.60;99.90;;;;;;6305178;22;20019;-86
2022/07/29 03:19:48;;;;;;;3.10;1.70;;;18.60;99.90;;;;;;6306155;22;19999;-88
2022/07/29 03:22:14;;;;;;;6.68;1.90;;;18.50;99.90;;;;;;6305572;22;19995;-87
2022/07/29 03:24:40;;;;;;;2.92;1.80;;;18.40;99.90;;;;;;6279144;22;20036;-89
2022/07/29 03:27:06;;;;;;;7.03;1.83;;;18.30;99.90;;;;;;6306422;22;20041;-93
2022/07/29 03:29:32;;;;;;;8.60;2.03;;;18.50;99.90;;;;;;6306244;22;20022;-89
2022/07/29 03:31:58;;;;;;;5.35;1.98;;;18.40;99.90;;;;;;6306251;22;20070;-93
2022/07/29 03:34:24;;;;;;;3.30;2.10;;;;;;;;;;6277412;22;20010;-90
2022/07/29 03:36:50;;;;;;;5.65;2.05;;;18.30;99.90;;;;;;6305423;22;20183;-90
2022/07/29 03:39:21;;;;;;;2.67;1.80;;;18.40;99.90;;;;;;6304979;22;20007;-91
2022/07/29 03:41:49;;;;;;;4.53;1.92;;;18.20;99.90;;;;;;6278654;22;20047;-89
2022/07/29 03:44:17;;;;;;;5.70;1.85;;;18.40;99.90;;;;;;6303442;22;19999;-91
2022/07/29 03:46:45;;;;;;;5.63;2.20;;;18.40;99.90;;;;;;6303597;22;20026;-91
2022/07/29 03:49:14;;;;;;;5.55;2.10;;;18.60;99.90;;;;;;6276493;22;20015;-86
2022/07/29 03:51:39;;;;;;;;;;;18.30;99.90;;;;;;6304366;22;20022;-90
2022/07/29 03:54:05;;;;;;;5.13;1.90;;;18.30;99.90;;;;;;6303938;22;20209;-88
2022/07/29 03:56:34;;;;;;;5.47;1.98;;;18.40;99.90;;;;;;6277485;22;20010;-87
2022/07/29 03:59:02;;;;;;;5.47;1.90;;;18.40;99.90;;;;;;6305597;22;20053;-89
2022/07/29 04:01:29;;;;;;;3.40;1.88;;;18.40;99.90;;;;;;6277411;22;20004;-88
2022/07/29 04:03:55;;;;;;;3.65;1.88;;;18.50;99.90;;;;;;6303455;22;19996;-90
2022/07/29 04:06:21;;;;;;;5.57;2.20;;;18.40;99.90;;;;;;6303927;22;20382;-88
2022/07/29 04:08:47;;;;;;;10.93;2.20;;;18.40;99.90;;;;;;6303277;22;20000;-89
2022/07/29 04:11:13;;;;;;;4.53;2.10;;;18.30;99.90;;;;;;6304043;22;19999;-88
2022/07/29 04:13:38;;;;;;;5.40;1.80;;;18.30;99.90;;;;;;6276838;22;20000;-88
2022/07/29 04:16:04;;;;;;;6.75;2.00;;;18.40;99.90;;;;;;6304424;22;20007;-85
2022/07/29 04:18:30;;;;;;;11.30;2.00;;;18.40;99.90;;;;;;6305048;22;20007;-86
2022/07/29 04:20:55;;;;;;;8.73;2.17;;;18.30;99.90;;;;;;6303067;22;19995;-88
2022/07/29 04:23:21;;;;;;;9.00;1.80;;;18.30;99.90;;;;;;6303094;22;20011;-88
2022/07/29 04:25:47;;;;;;;5.13;1.90;;;18.40;99.90;;;;;;6303758;22;20074;-88
2022/07/29 04:28:12;;;;;;;5.10;2.03;;;18.50;99.90;;;;;;6303335;22;19999;-85
2022/07/29 04:30:38;;;;;;;6.55;1.90;;;18.50;99.90;;;;;;6275845;22;20082;-86
2022/07/29 04:33:06;;;;;;;4.70;1.70;;;18.50;99.90;;;;;;6303722;22;20006;-84
2022/07/29 04:35:37;;;;;;;3.97;1.60;;;18.40;99.90;;;;;;6304658;22;20076;-85
2022/07/29 04:38:04;;;;;;;5.78;2.25;;;18.50;99.90;;;;;;6304067;22;20003;-86
2022/07/29 04:40:30;;;;;;;4.55;1.90;;;18.40;99.90;;;;;;6304205;22;20011;-87
2022/07/29 04:42:56;;;;;;;4.93;1.90;;;18.10;99.90;;;;;;6276086;22;20035;-86
2022/07/29 04:45:22;;;;;;;6.15;1.80;;;18.30;99.90;;;;;;6302964;22;20002;-88
2022/07/29 04:47:47;;;;;;;5.13;2.08;;;18.20;99.90;;;;;;6276685;22;20444;-91
2022/07/29 04:50:13;;;;;;;2.92;2.10;;;18.10;99.90;;;;;;6303429;22;20091;-91
2022/07/29 04:52:39;;;;;;;4.63;2.00;;;;;;;;;;6303921;22;20000;-92
2022/07/29 04:55:06;;;;;;;3.75;2.03;;;18.20;99.90;;;;;;6277699;22;20007;-86
2022/07/29 04:57:31;;;;;;;4.18;2.05;;;18.30;99.90;;;;;;6304337;22;20460;-88
2022/07/29 04:59:57;;;;;;;7.30;2.17;;;18.40;99.90;;;;;;6277892;22;20003;-86
2022/07/29 05:02:23;;;;;;;6.30;1.90;;;18.30;99.90;;;;;;6304513;22;20000;-87
2022/07/29 05:04:48;;;;;;;5.22;2.00;;;18.20;99.90;;;;;;6305789;22;20004;-86
2022/07/29 05:07:14;;;;;;;6.10;2.08;;;18.20;99.90;;;;;;6303708;22;19995;-85
2022/07/29 05:09:40;;;;;;;6.35;2.20;;;18.20;99.90;;;;;;6303085;22;20060;-84
2022/07/29 05:12:06;;;;;;;8.43;2.00;;;18.20;99.90;;;;;;6278800;22;20021;-84
2022/07/29 05:14:32;;;;;;;9.50;1.90;;;18.40;99.90;;;;;;6309046;22;20011;-88
2022/07/29 05:16:58;;;;;;;3.58;1.80;;;18.40;99.90;;;;;;6306607;22;19995;-89
2022/07/29 05:19:24;;;;;;;4.47;1.90;;;;;;;;;;6279257;22;19999;-92
2022/07/29 05:21:50;;;;;;;7.80;2.03;;;18.40;99.90;;;;;;6306452;22;19995;-91
2022/07/29 05:24:16;;;;;;;4.78;1.85;;;18.30;99.90;;;;;;6305880;22;20078;-91
2022/07/29 05:26:41;;;;;;;4.30;1.65;;;18.40;99.90;;;;;;6306295;22;20006;-89
2022/07/29 05:29:08;;;;;;;6.28;2.15;;;18.50;99.90;;;;;;6306562;22;20011;-85
2022/07/29 05:31:33;;;;;;;3.08;1.80;;;18.60;99.90;;;;;;6307249;22;19996;-91
2022/07/29 05:33:59;;;;;;;4.90;2.00;;;18.50;99.90;;;;;;6306151;22;20048;-90
2022/07/29 05:36:25;;;;;;;3.50;1.80;;;18.60;99.90;;;;;;6305999;22;20006;-91
2022/07/29 05:38:51;;;;;;;4.32;1.85;;;18.80;99.90;;;;;;6306549;22;20011;-85
2022/07/29 05:41:18;;;;;;;4.15;1.90;;;18.80;99.90;;;;;;6306397;22;20002;-87
2022/07/29 05:43:43;;;;;;;7.80;2.22;;;18.80;99.90;;;;;;6304875;22;20007;-87
2022/07/29 05:46:09;;;;;;;3.80;1.95;;;18.80;99.90;;;;;;6305565;22;20049;-87
2022/07/29 05:48:35;;;;;;;6.28;1.95;;;18.70;99.90;;;;;;6306623;22;19999;-92
2022/07/29 05:51:01;;;;;;;8.55;2.28;;;18.70;99.90;;;;;;6279475;22;20081;-85
2022/07/29 05:53:27;;;;;;;7.03;2.00;;;18.70;99.90;;;;;;6305985;22;20003;-90
2022/07/29 05:55:53;;;;;;;4.80;1.80;;;19.00;99.90;;;;;;6279111;22;20014;-88
2022/07/29 05:58:18;;;;;;;9.40;1.83;;;18.90;99.90;;;;;;6306367;22;20349;-91
2022/07/29 06:00:44;;;;;;;5.32;2.08;;;19.10;99.90;;;;;;6304676;22;20367;-88
2022/07/29 06:03:11;;;;;;;4.25;1.88;;;19.20;99.90;;;;;;6278682;22;20091;-83
2022/07/29 06:05:36;;;;;;;3.60;2.00;;;19.30;99.90;;;;;;6305088;22;20003;-84
2022/07/29 06:08:02;;;;;;;3.83;1.90;;;19.30;99.90;;;;;;6305432;22;19999;-91
2022/07/29 06:10:28;;;;;;;3.80;1.88;;;19.30;99.90;;;;;;6305902;22;20080;-92
2022/07/29 06:12:54;;;;;;;3.85;2.33;;;19.50;99.90;;;;;;6305297;22;20006;-86
2022/07/29 06:15:19;;;;;;;4.75;1.70;;;19.60;99.90;;;;;;6303799;22;20007;-86
2022/07/29 06:17:45;;;;;;;3.63;2.00;;;19.60;99.90;;;;;;6303680;22;19999;-89
2022/07/29 06:20:11;;;;;;;6.53;2.10;;;19.70;99.90;;;;;;6304724;22;20037;-83
2022/07/29 06:22:36;;;;;;;11.52;2.30;;;19.80;99.90;;;;;;6304622;22;19999;-89
2022/07/29 06:25:03;;;;;;;6.60;2.00;;;19.70;99.90;;;;;;6304839;22;20099;-84
2022/07/29 06:27:29;;;;;;;4.78;1.83;;;19.80;99.90;;;;;;6305119;22;20006;-87
2022/07/29 06:29:56;;;;;;;2.88;1.88;;;19.70;99.90;;;;;;6304959;22;20011;-92
2022/07/29 06:32:22;;;;;;;4.57;1.85;;;19.90;99.90;;;;;;6297774;22;19996;-83
2022/07/29 06:34:48;;;;;;;7.00;2.03;;;20.10;99.90;;;;;;6302121;22;20003;-84
2022/07/29 06:37:14;;;;;;;8.98;1.90;;;20.30;99.90;;;;;;6303354;22;19996;-91
2022/07/29 06:39:40;;;;;;;6.38;2.00;;;20.40;99.90;;;;;;6304475;22;20014;-84
2022/07/29 06:42:06;;;;;;;7.30;2.03;;;20.50;99.90;;;;;;6305006;22;19997;-90
2022/07/29 06:44:33;;;;;;;7.00;1.80;;;20.60;99.90;;;;;;6304106;22;20010;-87
2022/07/29 06:47:00;;;;;;;5.35;2.00;;;20.60;99.90;;;;;;6303165;22;19995;-90
2022/07/29 06:49:27;;;;;;;3.72;1.90;;;20.50;99.90;;;;;;6302422;22;20046;-84
2022/07/29 06:51:53;;;;;;;7.90;2.20;;;20.30;99.90;;;;;;6301646;22;20006;-85
2022/07/29 06:54:19;;;;;;;6.13;1.77;;;20.30;99.90;;;;;;6300886;22;20007;-83
2022/07/29 06:56:44;;;;;;;2.60;1.73;;;20.40;99.90;;;;;;6301881;22;20003;-84
2022/07/29 06:59:12;;;;;;;4.25;1.92;;;20.50;99.90;;;;;;6301631;22;20006;-84
2022/07/29 07:01:39;;;;;;;5.73;1.97;;;20.60;99.90;;;;;;6301337;22;20136;-85
2022/07/29 07:04:05;;;;;;;4.97;1.70;;;20.70;99.90;;;;;;6302202;22;19996;-85
2022/07/29 07:06:31;;;;;;;3.45;1.73;;;20.70;99.90;;;;;;6305118;22;20018;-91
2022/07/29 07:08:57;;;;;;;5.15;1.80;;;21.00;99.90;;;;;;6305764;22;20813;-90
2022/07/29 07:11:23;;;;;;;4.70;1.90;;;21.10;99.90;;;;;;6307621;22;19999;-90
2022/07/29 07:13:48;;;;;;;5.40;1.77;;;21.30;99.90;;;;;;6277730;22;20014;-85
2022/07/29 07:16:14;;;;;;;5.85;1.60;;;21.40;99.90;;;;;;6302521;22;20443;-87
2022/07/29 07:18:40;;;;;;;5.30;1.90;;;21.60;99.90;;;;;;6274818;22;20003;-84
2022/07/29 07:21:06;;;;;;;4.28;1.70;;;21.60;99.90;;;;;;6302948;22;20007;-84
2022/07/29 07:23:31;;;;;;;4.90;1.60;;;21.40;99.90;;;;;;6274731;22;20058;-84
2022/07/29 07:25:57;;;;;;;7.20;1.77;;;21.60;99.90;;;;;;6302520;22;20074;-86
2022/07/29 07:28:23;;;;;;;6.13;2.00;;;21.80;99.90;;;;;;6275695;22;19999;-91
2022/07/29 07:30:48;;;;;;;3.88;2.15;;;21.70;99.90;;;;;;6302109;22;20003;-86
2022/07/29 07:33:14;;;;;;;7.28;1.70;;;21.60;99.90;;;;;;6302049;22;20010;-90
2022/07/29 07:35:41;;;;;;;5.80;1.65;;;21.90;99.90;;;;;;6303211;22;20003;-92
2022/07/29 07:38:06;;;;;;;6.72;1.77;;;22.20;99.90;;;;;;6276486;22;19999;-90
2022/07/29 07:40:32;;;;;;;5.15;1.95;;;22.30;99.90;;;;;;6303125;22;20317;-90
2022/07/29 07:42:58;;;;;;;7.50;1.92;;;22.50;99.90;;;;;;6302914;22;20003;-86
2022/07/29 07:45:23;;;;;;;5.57;1.80;;;22.70;99.90;;;;;;6303202;22;20002;-84
2022/07/29 07:47:49;;;;;;;8.73;2.00;;;22.80;99.90;;;;;;6302571;22;20005;-84
2022/07/29 07:50:17;;;;;;;4.63;1.90;;;22.90;99.90;;;;;;6302682;22;20086;-90
2022/07/29 07:52:48;;;;;;;9.10;1.90;;;22.70;99.90;;;;;;6302653;22;20000;-92
2022/07/29 07:55:13;;;;;;;5.07;1.95;;;22.80;99.90;;;;;;6302395;22;20010;-84
2022/07/29 07:57:39;;;;;;;6.93;1.73;;;22.90;99.90;;;;;;6303204;22;20070;-86
2022/07/29 08:00:05;;;;;;;7.97;1.80;;;23.10;99.90;;;;;;6302128;22;19999;-85
2022/07/29 08:02:32;;;;;;;5.60;1.40;;;23.10;99.90;;;;;;6302590;22;20361;-85
2022/07/29 08:04:59;;;;;;;4.97;2.00;;;23.20;99.90;;;;;;6302519;22;20057;-83
2022/07/29 08:07:25;;;;;;;6.43;1.90;;;23.30;99.90;;;;;;6302914;22;20009;-83
2022/07/29 08:09:50;;;;;;;6.40;1.90;;;23.40;99.90;;;;;;6302712;22;20331;-84
2022/07/29 08:12:16;;;;;;;5.25;1.90;;;23.50;99.90;;;;;;6275617;22;20038;-83
2022/07/29 08:14:42;;;;;;;6.00;1.92;;;23.60;99.90;;;;;;6303594;22;20003;-84
2022/07/29 08:17:08;;;;;;;5.78;1.95;;;23.80;99.90;;;;;;6304029;22;19995;-92
2022/07/29 08:19:33;;;;;;;7.13;2.00;;;23.90;99.90;;;;;;6302744;22;20053;-81
2022/07/29 08:21:59;;;;;;;8.05;2.15;;;23.90;99.90;;;;;;6302223;22;19995;-84
2022/07/29 08:24:43;;;;;;;5.70;1.80;;;24.00;99.90;;;;;;6302155;22;20436;-82
2022/07/29 08:27:13;;;;;;;4.28;1.80;;;24.10;99.90;;;;;;6304903;22;19996;-93
2022/07/29 08:29:38;;;;;;;4.07;1.60;;;24.20;99.90;;;;;;6304983;22;20011;-93
2022/07/29 08:32:05;;;;;;;4.00;1.80;;;24.20;99.90;;;;;;6275531;22;20070;-84
2022/07/29 08:34:31;;;;;;;6.35;1.80;;;24.20;99.90;;;;;;6275969;22;20014;-92
2022/07/29 08:36:57;;;;;;;3.65;1.70;;;24.20;99.90;;;;;;6302475;22;19995;-90
2022/07/29 08:39:24;;;;;;;4.45;1.63;;;24.10;99.90;;;;;;6302096;22;20011;-83
2022/07/29 08:41:51;;;;;;;5.03;1.90;;;24.00;99.90;;;;;;6301957;22;20003;-87
2022/07/29 08:44:18;;;;;;;5.90;1.88;;;24.10;99.90;;;;;;6301952;22;20233;-84
2022/07/29 08:46:45;;;;;;;9.10;2.20;;;24.10;99.90;;;;;;6304849;22;20002;-85
2022/07/29 08:49:11;;;;;;;9.00;1.85;;;24.10;99.90;;;;;;6278233;22;20073;-90
2022/07/29 08:51:40;;;;;;;6.57;1.80;;;24.00;99.90;;;;;;6304605;22;20082;-94
2022/07/29 08:54:08;;;;;;;4.03;1.75;;;23.90;99.90;;;;;;6251266;22;20018;-95
2022/07/29 08:56:34;;;;;;;4.70;1.98;;;23.90;99.90;;;;;;6304644;22;20000;-91
2022/07/29 08:59:04;;;;;;;9.43;1.80;;;24.00;99.90;;;;;;6304688;22;19999;-88
2022/07/29 09:01:36;;;;;;;9.15;1.52;;;24.00;99.90;;;;;;6277490;22;20006;-86
2022/07/29 09:04:04;;;;;;;6.40;1.90;;;24.10;99.90;;;;;;6311481;22;20015;-86
2022/07/29 09:06:34;;;;;;;3.88;1.85;;;24.00;99.90;;;;;;6286458;22;20339;-92
2022/07/29 09:09:00;;;;;;;4.13;1.60;;;24.10;99.90;;;;;;6306110;22;20004;-89
2022/07/29 09:11:26;;;;;;;2.80;1.60;;;24.20;99.90;;;;;;6307550;22;19999;-86
2022/07/29 09:13:52;;;;;;;3.67;1.60;;;24.40;99.90;;;;;;6278881;22;20010;-88
2022/07/29 09:16:18;;;;;;;400.90;151.60;;;24.50;99.90;;;;;;6279876;22;20019;-93
2022/07/29 09:18:53;;;;;;;235.30;67.13;;;24.60;99.90;;;;;;6290753;22;20003;-93
2022/07/29 09:24:07;;;;;;;6.88;1.83;;;24.80;99.90;;;;;;6302451;22;20015;-91
2022/07/29 09:26:36;;;;;;;5.07;1.90;;;24.80;99.90;;;;;;6304235;22;19999;-91
2022/07/29 09:29:12;;;;;;;10.20;1.85;;;24.80;99.90;;;;;;6304613;22;20033;-93
2022/07/29 09:31:43;;;;;;;7.63;1.92;;;24.90;99.90;;;;;;6277599;22;20470;-92
2022/07/29 09:34:10;;;;;;;3.85;1.58;;;24.80;99.90;;;;;;6304445;22;20443;-92
2022/07/29 09:36:41;;;;;;;5.32;1.80;;;25.00;99.90;;;;;;6306189;22;20011;-93
2022/07/29 09:39:07;;;;;;;11.90;1.90;;;25.00;99.90;;;;;;6277139;22;20344;-91
2022/07/29 09:41:52;;;;;;;6.95;1.80;;;25.10;99.90;;;;;;6276407;22;20003;-92
2022/07/29 09:44:19;;;;;;;4.78;1.80;;;25.30;99.90;;;;;;6304149;22;20070;-93
2022/07/29 09:47:05;;;;;;;8.30;1.88;;;25.40;99.90;;;;;;6305318;22;20064;-89
2022/07/29 09:49:33;;;;;;;6.90;1.90;;;25.50;99.90;;;;;;6276116;22;20011;-87
2022/07/29 09:52:00;;;;;;;4.68;1.60;;;25.40;99.90;;;;;;6303737;22;20360;-87
2022/07/29 09:54:27;;;;;;;7.50;1.83;;;24.80;99.90;;;;;;6303768;22;20007;-85
2022/07/29 09:56:55;;;;;;;3.77;1.73;;;25.00;99.90;;;;;;6304681;22;20440;-85
2022/07/29 09:59:24;;;;;;;4.90;1.80;;;25.20;99.90;;;;;;6276509;22;20242;-88
2022/07/29 10:01:49;;;;;;;4.03;1.50;;;25.40;99.90;;;;;;6304898;22;19999;-90
2022/07/29 10:04:16;;;;;;;6.10;2.03;;;25.70;99.90;;;;;;6305721;22;20436;-91
2022/07/29 10:07:04;;;;;;;5.30;1.90;;;26.00;99.90;;;;;;6304907;22;20000;-93
2022/07/29 10:09:31;;;;;;;5.95;1.90;;;26.10;99.90;;;;;;6305779;22;20118;-89
2022/07/29 10:12:13;;;;;;;6.10;1.83;;;26.10;99.90;;;;;;6283630;22;20087;-89
2022/07/29 10:14:39;;;;;;;6.20;1.98;;;26.30;99.90;;;;;;6306425;22;20013;-90
2022/07/29 10:17:06;;;;;;;9.82;2.10;;;26.30;99.90;;;;;;6304276;22;20000;-85
2022/07/29 10:19:33;;;;;;;5.78;1.95;;;26.40;99.90;;;;;;6303663;22;19999;-87
2022/07/29 10:22:00;;;;;;;9.20;1.80;;;26.40;99.90;;;;;;6277709;22;20007;-86
2022/07/29 10:24:26;;;;;;;7.97;1.70;;;26.40;99.90;;;;;;6304439;22;20230;-84
2022/07/29 10:26:55;;;;;;;9.60;2.20;;;26.50;99.90;;;;;;6277470;22;20007;-86
2022/07/29 10:29:20;;;;;;;8.35;1.98;;;26.60;99.90;;;;;;6306752;22;20390;-91
2022/07/29 10:32:25;;;;;;;4.25;1.80;;;26.70;99.90;;;;;;6307086;22;20002;-89
2022/07/29 10:35:18;;;;;;;7.95;1.92;;;26.80;99.90;;;;;;6257381;22;20451;-90
2022/07/29 10:38:03;;;;;;;8.90;2.15;;;26.80;99.90;;;;;;6305004;22;20045;-85
2022/07/29 10:43:26;;;;;;;6.43;2.17;;;26.90;99.90;;;;;;6303117;22;20022;-88
2022/07/29 10:45:57;;;;;;;7.13;2.20;;;27.00;99.90;;;;;;6306321;22;20360;-88
2022/07/29 10:48:23;;;;;;;11.02;2.17;;;27.10;99.90;;;;;;6302828;22;20393;-87
2022/07/29 10:50:56;;;;;;;9.00;1.80;;;27.10;99.90;;;;;;6303361;22;20339;-87
2022/07/29 10:53:23;;;;;;;6.15;2.10;;;27.20;99.90;;;;;;6302859;22;20317;-88
2022/07/29 10:55:50;;;;;;;7.65;1.92;;;27.10;99.90;;;;;;6303993;22;20506;-88
2022/07/29 10:58:17;;;;;;;12.83;2.00;;;27.10;99.90;;;;;;6276832;22;20027;-88
2022/07/29 11:00:43;;;;;;;6.80;1.70;;;27.20;99.90;;;;;;6302651;22;20455;-90
2022/07/29 11:03:09;;;;;;;7.10;2.10;;;27.30;99.90;;;;;;6302924;22;20006;-89
2022/07/29 11:06:00;;;;;;;10.38;2.33;;;27.40;99.90;;;;;;6303091;22;19996;-87
2022/07/29 11:08:26;;;;;;;16.20;2.38;;;27.50;99.90;;;;;;6296692;22;20444;-88
2022/07/29 11:11:13;;;;;;;3.17;1.63;;;27.60;99.90;;;;;;6302661;22;20035;-86
2022/07/29 11:13:49;;;;;;;8.93;2.50;;;27.70;99.90;;;;;;6302657;22;20004;-88
2022/07/29 11:16:16;;;;;;;8.05;1.90;;;27.70;99.90;;;;;;6303221;22;19999;-87
2022/07/29 11:19:12;;;;;;;5.53;2.00;;;27.50;99.90;;;;;;6302907;22;20011;-87
2022/07/29 11:21:40;;;;;;;7.17;1.90;;;27.70;99.90;;;;;;6301321;22;20050;-85
2022/07/29 11:24:16;;;;;;;8.55;2.33;;;27.80;99.90;;;;;;6302844;22;20003;-87
2022/07/29 11:26:42;;;;;;;4.07;1.80;;;27.80;99.90;;;;;;6303442;22;19999;-88
2022/07/29 11:29:17;;;;;;;10.18;2.10;;;27.70;99.90;;;;;;6293237;22;20011;-88
2022/07/29 11:31:45;;;;;;;8.55;2.08;;;27.80;99.90;;;;;;6273984;22;20086;-88
2022/07/29 11:34:32;;;;;;;6.90;2.00;;;27.70;99.90;;;;;;6274394;22;20544;-88
2022/07/29 11:37:06;;;;;;;7.50;1.80;;;28.00;99.90;;;;;;6301671;22;20003;-87
2022/07/29 11:39:33;;;;;;;8.32;2.10;;;28.20;99.90;;;;;;6274632;22;20021;-87
2022/07/29 11:42:19;;;;;;;5.88;2.05;;;28.30;99.90;;;;;;6302107;22;19995;-88
2022/07/29 11:45:14;;;;;;;4.40;1.70;;;28.30;99.90;;;;;;6274822;22;20324;-87
2022/07/29 11:47:52;;;;;;;6.47;2.00;;;28.10;99.90;;;;;;6302001;22;20027;-88
2022/07/29 11:50:34;;;;;;;6.53;1.90;;;28.40;99.90;;;;;;6302179;22;20022;-88
2022/07/29 11:53:01;;;;;;;10.07;2.00;;;28.40;99.90;;;;;;6274319;22;20031;-87
2022/07/29 11:55:27;;;;;;;10.07;2.10;;;28.40;99.90;;;;;;6274345;22;20010;-88
2022/07/29 11:57:59;;;;;;;12.60;2.22;;;28.40;99.90;;;;;;6302542;22;20755;-88
2022/07/29 12:00:30;;;;;;;5.95;1.77;;;28.50;99.90;;;;;;6302701;22;20045;-88
2022/07/29 12:02:57;;;;;;;5.50;1.90;;;28.50;99.90;;;;;;6275277;22;20038;-88
2022/07/29 12:05:44;;;;;;;11.23;2.10;;;28.70;99.90;;;;;;6302307;22;20436;-87
2022/07/29 12:08:21;;;;;;;6.30;2.00;;;28.60;99.90;;;;;;6303223;22;19999;-89
2022/07/29 12:10:49;;;;;;;6.65;1.85;;;27.50;99.90;;;;;;6302812;22;20452;-88
2022/07/29 12:13:16;;;;;;;11.57;2.00;;;27.40;99.90;;;;;;6301747;22;19999;-87
2022/07/29 12:15:51;;;;;;;13.32;2.33;;;27.40;99.90;;;;;;6302685;22;20336;-88
2022/07/29 12:18:18;;;;;;;6.88;1.83;;;27.80;99.90;;;;;;6301607;22;20021;-88
2022/07/29 12:20:46;;;;;;;9.98;1.80;;;28.20;99.90;;;;;;6275278;22;20376;-86
2022/07/29 12:23:12;;;;;;;5.25;1.77;;;28.10;99.90;;;;;;6303027;22;20007;-89
2022/07/29 12:25:39;;;;;;;6.20;1.88;;;27.30;99.90;;;;;;6274872;22;19999;-87
2022/07/29 12:28:13;;;;;;;9.63;2.60;;;27.20;99.90;;;;;;6302356;22;20026;-92
2022/07/29 12:30:40;;;;;;;15.60;2.45;;;27.30;99.90;;;;;;6274721;22;20022;-89
2022/07/29 12:33:27;;;;;;;6.43;2.05;;;27.20;99.90;;;;;;6302634;22;20003;-87
2022/07/29 12:36:01;;;;;;;8.63;1.98;;;27.30;99.90;;;;;;6302693;22;20049;-86
2022/07/29 12:38:27;;;;;;;9.18;2.00;;;27.70;99.90;;;;;;6302307;22;19999;-86
2022/07/29 12:40:55;;;;;;;7.57;2.00;;;27.60;99.90;;;;;;6275282;22;20076;-86
2022/07/29 12:43:22;;;;;;;9.10;1.92;;;27.70;99.90;;;;;;6304174;22;19996;-88
2022/07/29 12:45:54;;;;;;;8.00;1.95;;;28.00;99.90;;;;;;6277299;22;20038;-90
2022/07/29 12:48:39;;;;;;;6.13;2.03;;;28.30;99.90;;;;;;6303377;22;19996;-86
2022/07/29 12:51:07;;;;;;;5.68;2.05;;;27.50;99.90;;;;;;6275569;22;20017;-88
2022/07/29 12:53:33;;;;;;;7.65;2.30;;;27.40;99.90;;;;;;6302126;22;20003;-87
2022/07/29 12:56:01;;;;;;;7.18;1.95;;;27.80;99.90;;;;;;6302301;22;20313;-90
2022/07/29 12:58:37;;;;;;;14.77;2.20;;;28.20;99.90;;;;;;6274989;22;20092;-85
2022/07/29 13:01:17;;;;;;;8.27;1.80;;;28.30;99.90;;;;;;6301573;22;20023;-86